createdAt,value
2018-01-01T00:00:43.154Z,963.25
2018-01-01T00:01:43.201Z,963.19
2018-01-01T00:02:43.255Z,963.27
2018-01-01T00:03:43.284Z,963.29
2018-01-01T00:04:43.326Z,963.27
2018-01-01T00:05:43.366Z,963.30
2018-01-01T00:06:43.414Z,963.30
2018-01-01T00:07:43.504Z,963.28
2018-01-01T00:08:43.501Z,963.27
2018-01-01T00:09:43.538Z,963.25
2018-01-01T00:10:43.588Z,963.16
2018-01-01T00:11:43.629Z,963.22
2018-01-01T00:12:43.686Z,963.15
2018-01-01T00:13:43.715Z,963.14
2018-01-01T00:14:43.778Z,963.14
2018-01-01T00:15:43.806Z,963.09
2018-01-01T00:16:43.843Z,963.13
2018-01-01T00:17:43.889Z,963.10
2018-01-01T00:18:43.933Z,963.08
2018-01-01T00:19:43.990Z,963.13
2018-01-01T00:20:44.015Z,963.10
2018-01-01T00:21:44.057Z,963.11
2018-01-01T00:22:44.102Z,963.05
2018-01-01T00:23:44.162Z,963.08
2018-01-01T00:24:44.194Z,963.13
2018-01-01T00:25:44.284Z,963.11
2018-01-01T00:26:44.275Z,963.10
2018-01-01T00:27:44.327Z,963.05
2018-01-01T00:28:44.376Z,963.11
2018-01-01T00:29:44.413Z,963.13
2018-01-01T00:30:44.450Z,963.15
2018-01-01T00:31:44.508Z,963.21
2018-01-01T00:32:44.542Z,963.22
2018-01-01T00:33:44.580Z,963.21
2018-01-01T00:34:44.620Z,963.22
2018-01-01T00:35:44.665Z,963.28
2018-01-01T00:36:44.723Z,963.27
2018-01-01T00:37:44.752Z,963.23
2018-01-01T00:38:44.813Z,963.20
2018-01-01T00:39:44.838Z,963.15
2018-01-01T00:40:44.877Z,963.18
2018-01-01T00:41:44.924Z,963.18
2018-01-01T00:42:44.987Z,963.13
2018-01-01T00:43:45.011Z,963.22
2018-01-01T00:44:45.053Z,963.23
2018-01-01T00:45:45.103Z,963.24
2018-01-01T00:46:45.143Z,963.29
2018-01-01T00:47:45.201Z,963.31
2018-01-01T00:48:45.228Z,963.30
2018-01-01T00:49:46.183Z,963.32
2018-01-01T00:50:45.314Z,963.23
2018-01-01T00:51:45.358Z,963.27
2018-01-01T00:52:45.399Z,963.28
2018-01-01T00:53:45.447Z,963.25
2018-01-01T00:54:45.524Z,963.23
2018-01-01T00:55:45.536Z,963.23
2018-01-01T00:56:45.573Z,963.23
2018-01-01T00:57:45.646Z,963.23
2018-01-01T00:58:45.665Z,963.29
2018-01-01T00:59:45.739Z,963.29
2018-01-01T01:00:45.748Z,963.29
2018-01-01T01:01:45.794Z,963.27
2018-01-01T01:02:45.835Z,963.34
2018-01-01T01:03:45.888Z,963.32
2018-01-01T01:04:45.940Z,963.36
2018-01-01T01:05:45.965Z,963.36
2018-01-01T01:06:46.012Z,963.45
2018-01-01T01:07:46.060Z,963.45
2018-01-01T01:08:46.097Z,963.42
2018-01-01T01:09:46.179Z,963.47
2018-01-01T01:10:46.189Z,963.49
2018-01-01T01:11:46.231Z,963.55
2018-01-01T01:12:46.276Z,963.55
2018-01-01T01:13:46.319Z,963.55
2018-01-01T01:14:46.380Z,963.54
2018-01-01T01:15:46.408Z,963.52
2018-01-01T01:16:46.465Z,963.53
2018-01-01T01:17:46.495Z,963.53
2018-01-01T01:18:46.537Z,963.58
2018-01-01T01:19:46.582Z,963.67
2018-01-01T01:20:46.633Z,963.63
2018-01-01T01:21:46.685Z,963.68
2018-01-01T01:22:46.726Z,963.63
2018-01-01T01:23:46.759Z,963.74
2018-01-01T01:24:46.806Z,963.70
2018-01-01T01:25:46.850Z,963.75
2018-01-01T01:26:46.909Z,963.83
2018-01-01T01:27:46.963Z,963.83
2018-01-01T01:28:46.981Z,963.81
2018-01-01T01:29:47.033Z,963.83
2018-01-01T01:30:47.085Z,963.84
2018-01-01T01:31:47.141Z,963.87
2018-01-01T01:32:47.159Z,963.81
2018-01-01T01:33:47.203Z,963.90
2018-01-01T01:34:47.248Z,963.90
2018-01-01T01:35:47.292Z,963.85
2018-01-01T01:36:47.351Z,963.89
2018-01-01T01:37:47.379Z,963.88
2018-01-01T01:38:47.423Z,963.95
2018-01-01T01:39:47.471Z,963.96
2018-01-01T01:40:47.515Z,963.98
2018-01-01T01:41:47.605Z,964.04
2018-01-01T01:42:47.605Z,964.15
2018-01-01T01:43:47.649Z,964.10
2018-01-01T01:44:47.695Z,964.10
2018-01-01T01:45:47.742Z,964.17
2018-01-01T01:46:47.826Z,964.19
2018-01-01T01:47:47.832Z,964.23
2018-01-01T01:48:47.873Z,964.22
2018-01-01T01:49:47.920Z,964.24
2018-01-01T01:50:47.964Z,964.29
2018-01-01T01:51:48.045Z,964.28
2018-01-01T01:52:48.059Z,964.34
2018-01-01T01:53:48.100Z,964.39
2018-01-01T01:54:48.149Z,964.32
2018-01-01T01:55:48.193Z,964.40
2018-01-01T01:58:24.355Z,964.49
2018-01-01T01:59:24.385Z,964.56
2018-01-01T02:00:24.429Z,964.64
2018-01-01T02:01:24.478Z,964.62
2018-01-01T02:02:24.521Z,964.66
2018-01-01T02:03:24.586Z,964.79
2018-01-01T02:04:24.609Z,964.74
2018-01-01T02:05:24.657Z,964.79
2018-01-01T02:06:24.706Z,964.90
2018-01-01T02:07:24.749Z,964.88
2018-01-01T02:08:24.807Z,964.93
2018-01-01T02:09:24.841Z,964.97
2018-01-01T02:10:24.881Z,964.97
2018-01-01T02:11:24.932Z,965.08
2018-01-01T02:12:24.972Z,965.07
2018-01-01T02:13:25.035Z,965.24
2018-01-01T02:14:25.062Z,965.07
2018-01-01T02:15:25.108Z,965.14
2018-01-01T02:16:25.152Z,965.13
2018-01-01T02:17:25.206Z,965.19
2018-01-01T02:18:25.278Z,965.29
2018-01-01T02:19:25.289Z,965.31
2018-01-01T02:20:25.334Z,965.37
2018-01-01T02:21:25.382Z,965.36
2018-01-01T02:22:25.427Z,965.33
2018-01-01T02:23:25.487Z,965.40
2018-01-01T02:24:25.535Z,965.38
2018-01-01T02:25:25.559Z,965.35
2018-01-01T02:26:25.614Z,965.45
2018-01-01T02:27:25.651Z,965.42
2018-01-01T02:28:25.694Z,965.49
2018-01-01T02:29:25.754Z,965.43
2018-01-01T02:30:25.784Z,965.48
2018-01-01T02:31:25.828Z,965.48
2018-01-01T02:32:25.875Z,965.55
2018-01-01T02:33:25.917Z,965.58
2018-01-01T02:34:25.985Z,965.56
2018-01-01T02:35:26.014Z,965.59
2018-01-01T02:36:26.055Z,965.59
2018-01-01T02:37:26.098Z,965.58
2018-01-01T02:38:26.143Z,965.62
2018-01-01T02:39:26.204Z,965.62
2018-01-01T02:40:26.231Z,965.59
2018-01-01T02:41:26.276Z,965.61
2018-01-01T02:42:26.321Z,965.59
2018-01-01T02:43:26.371Z,965.65
2018-01-01T02:44:26.428Z,965.63
2018-01-01T02:45:26.453Z,965.69
2018-01-01T02:46:26.501Z,965.73
2018-01-01T02:47:26.545Z,965.73
2018-01-01T02:48:26.587Z,965.73
2018-01-01T02:49:26.659Z,965.73
2018-01-01T02:50:26.696Z,965.77
2018-01-01T02:51:26.723Z,965.80
2018-01-01T02:52:26.768Z,965.82
2018-01-01T02:53:26.812Z,965.86
2018-01-01T02:54:26.857Z,965.93
2018-01-01T02:55:26.934Z,965.93
2018-01-01T02:56:26.958Z,965.90
2018-01-01T02:57:26.993Z,965.89
2018-01-01T02:58:27.038Z,965.92
2018-01-01T02:59:27.080Z,965.94
2018-01-01T03:00:27.508Z,966.02
2018-01-01T03:01:27.185Z,966.06
2018-01-01T03:02:27.214Z,966.13
2018-01-01T03:03:27.265Z,966.20
2018-01-01T03:04:27.303Z,966.26
2018-01-01T03:05:27.349Z,966.26
2018-01-01T03:06:27.412Z,966.31
2018-01-01T03:07:27.438Z,966.32
2018-01-01T03:08:27.485Z,966.40
2018-01-01T03:09:27.527Z,966.37
2018-01-01T03:10:27.578Z,966.35
2018-01-01T03:11:27.633Z,966.41
2018-01-01T03:12:27.661Z,966.55
2018-01-01T03:13:27.706Z,966.42
2018-01-01T03:14:27.752Z,966.37
2018-01-01T03:15:27.797Z,966.44
2018-01-01T03:16:27.857Z,966.35
2018-01-01T03:17:27.886Z,966.50
2018-01-01T03:18:27.947Z,966.44
2018-01-01T03:19:27.972Z,966.49
2018-01-01T03:20:28.023Z,966.48
2018-01-01T03:21:28.062Z,966.41
2018-01-01T03:22:28.107Z,966.44
2018-01-01T03:23:28.184Z,966.49
2018-01-01T03:24:28.195Z,966.49
2018-01-01T03:25:28.239Z,966.47
2018-01-01T03:26:28.284Z,966.54
2018-01-01T03:27:28.331Z,966.66
2018-01-01T03:28:28.407Z,966.57
2018-01-01T03:29:28.417Z,966.64
2018-01-01T03:30:28.465Z,966.62
2018-01-01T03:31:28.506Z,966.68
2018-01-01T03:32:28.550Z,966.63
2018-01-01T03:33:28.614Z,966.66
2018-01-01T03:34:28.643Z,966.61
2018-01-01T03:35:28.682Z,966.68
2018-01-01T03:36:28.727Z,966.64
2018-01-01T03:37:28.772Z,966.64
2018-01-01T03:38:28.835Z,966.72
2018-01-01T03:39:28.884Z,966.67
2018-01-01T03:40:28.904Z,966.70
2018-01-01T03:41:28.947Z,966.78
2018-01-01T03:42:28.993Z,966.78
2018-01-01T03:43:29.040Z,966.79
2018-01-01T03:44:29.098Z,966.84
2018-01-01T03:45:29.124Z,966.79
2018-01-01T03:46:29.174Z,966.82
2018-01-01T03:47:29.213Z,966.87
2018-01-01T03:48:29.257Z,966.85
2018-01-01T03:49:29.348Z,966.84
2018-01-01T03:50:29.346Z,966.88
2018-01-01T03:51:29.389Z,966.90
2018-01-01T03:52:29.433Z,966.85
2018-01-01T03:53:29.486Z,966.92
2018-01-01T03:54:29.538Z,966.99
2018-01-01T03:55:29.568Z,966.86
2018-01-01T03:56:29.609Z,966.94
2018-01-01T03:57:29.655Z,967.04
2018-01-01T03:58:29.717Z,967.04
2018-01-01T03:59:29.742Z,967.08
2018-01-01T04:00:29.793Z,967.11
2018-01-01T04:01:29.830Z,967.18
2018-01-01T04:02:29.874Z,967.25
2018-01-01T04:03:29.937Z,967.24
2018-01-01T04:04:29.966Z,967.22
2018-01-01T04:05:30.982Z,967.23
2018-01-01T04:06:30.062Z,967.25
2018-01-01T04:07:30.097Z,967.27
2018-01-01T04:08:30.158Z,967.32
2018-01-01T04:09:30.185Z,967.32
2018-01-01T04:10:30.226Z,967.38
2018-01-01T04:11:30.272Z,967.36
2018-01-01T04:12:30.316Z,967.35
2018-01-01T04:13:30.377Z,967.24
2018-01-01T04:14:30.402Z,967.21
2018-01-01T04:15:30.447Z,967.19
2018-01-01T04:16:30.489Z,967.21
2018-01-01T04:17:30.534Z,967.22
2018-01-01T04:18:30.609Z,967.20
2018-01-01T04:19:30.620Z,967.26
2018-01-01T04:20:30.671Z,967.25
2018-01-01T04:21:30.712Z,967.24
2018-01-01T04:22:30.753Z,967.17
2018-01-01T04:23:30.820Z,967.18
2018-01-01T04:24:30.842Z,967.18
2018-01-01T04:25:30.887Z,967.19
2018-01-01T04:26:30.929Z,967.17
2018-01-01T04:27:30.973Z,967.19
2018-01-01T04:28:31.045Z,967.20
2018-01-01T04:29:31.059Z,967.16
2018-01-01T04:30:31.105Z,967.15
2018-01-01T04:31:31.165Z,967.15
2018-01-01T04:32:31.190Z,967.16
2018-01-01T04:33:31.236Z,967.16
2018-01-01T04:34:31.281Z,967.16
2018-01-01T04:35:31.323Z,967.19
2018-01-01T04:36:31.392Z,967.20
2018-01-01T04:37:31.411Z,967.21
2018-01-01T04:38:31.455Z,967.22
2018-01-01T04:39:31.527Z,967.22
2018-01-01T04:40:31.543Z,967.22
2018-01-01T04:41:31.587Z,967.24
2018-01-01T04:42:31.629Z,967.20
2018-01-01T04:43:31.676Z,967.22
2018-01-01T04:44:31.737Z,967.16
2018-01-01T04:45:31.765Z,967.17
2018-01-01T04:46:31.808Z,967.23
2018-01-01T04:47:31.850Z,967.22
2018-01-01T04:48:31.898Z,967.24
2018-01-01T04:49:31.953Z,967.26
2018-01-01T04:50:31.980Z,967.29
2018-01-01T04:51:32.022Z,967.31
2018-01-01T04:52:32.088Z,967.30
2018-01-01T04:53:32.113Z,967.29
2018-01-01T04:54:32.156Z,967.34
2018-01-01T04:55:32.222Z,967.33
2018-01-01T04:56:32.244Z,967.33
2018-01-01T04:57:32.322Z,967.32
2018-01-01T04:58:32.342Z,967.32
2018-01-01T04:59:32.376Z,967.28
2018-01-01T05:00:32.422Z,967.32
2018-01-01T05:01:32.462Z,967.27
2018-01-01T05:02:32.540Z,967.31
2018-01-01T05:03:32.552Z,967.37
2018-01-01T05:04:32.595Z,967.30
2018-01-01T05:05:32.639Z,967.26
2018-01-01T05:06:32.684Z,967.26
2018-01-01T05:07:32.764Z,967.31
2018-01-01T05:08:32.771Z,967.29
2018-01-01T05:09:32.815Z,967.29
2018-01-01T05:10:32.859Z,967.30
2018-01-01T05:11:32.904Z,967.29
2018-01-01T05:12:32.971Z,967.29
2018-01-01T05:13:32.993Z,967.33
2018-01-01T05:14:33.033Z,967.23
2018-01-01T05:15:33.079Z,967.29
2018-01-01T05:16:33.122Z,967.21
2018-01-01T05:17:33.183Z,967.23
2018-01-01T05:18:33.226Z,967.27
2018-01-01T05:19:33.252Z,967.32
2018-01-01T05:20:33.297Z,967.32
2018-01-01T05:21:33.342Z,967.28
2018-01-01T05:22:33.385Z,967.32
2018-01-01T05:23:33.466Z,967.33
2018-01-01T05:24:33.471Z,967.31
2018-01-01T05:25:33.518Z,967.32
2018-01-01T05:26:33.559Z,967.34
2018-01-01T05:27:33.604Z,967.35
2018-01-01T05:28:33.662Z,967.39
2018-01-01T05:29:33.691Z,967.32
2018-01-01T05:30:33.735Z,967.33
2018-01-01T05:31:33.781Z,967.33
2018-01-01T05:32:33.823Z,967.32
2018-01-01T05:33:33.901Z,967.30
2018-01-01T05:34:33.918Z,967.30
2018-01-01T05:35:33.954Z,967.27
2018-01-01T05:36:34.013Z,967.31
2018-01-01T05:37:34.048Z,967.32
2018-01-01T05:38:34.097Z,967.34
2018-01-01T05:39:34.198Z,967.32
2018-01-01T05:40:34.173Z,967.33
2018-01-01T05:41:34.217Z,967.35
2018-01-01T05:42:34.262Z,967.35
2018-01-01T05:43:34.307Z,967.36
2018-01-01T05:44:34.381Z,967.36
2018-01-01T05:45:34.400Z,967.37
2018-01-01T05:46:34.441Z,967.40
2018-01-01T05:47:34.488Z,967.37
2018-01-01T05:48:34.524Z,967.37
2018-01-01T05:49:34.584Z,967.39
2018-01-01T05:50:34.613Z,967.33
2018-01-01T05:51:34.674Z,967.38
2018-01-01T05:52:34.700Z,967.39
2018-01-01T05:53:34.744Z,967.37
2018-01-01T05:54:34.787Z,967.39
2018-01-01T05:55:34.834Z,967.38
2018-01-01T05:56:34.892Z,967.39
2018-01-01T05:57:34.918Z,967.43
2018-01-01T05:58:34.969Z,967.39
2018-01-01T05:59:35.011Z,967.35
2018-01-01T06:00:35.050Z,967.38
2018-01-01T06:01:35.116Z,967.39
2018-01-01T06:02:35.140Z,967.38
2018-01-01T06:03:35.184Z,967.35
2018-01-01T06:04:35.225Z,967.40
2018-01-01T06:05:35.272Z,967.39
2018-01-01T06:06:35.333Z,967.35
2018-01-01T06:07:35.359Z,967.38
2018-01-01T06:08:35.403Z,967.40
2018-01-01T06:09:35.447Z,967.35
2018-01-01T06:10:35.489Z,967.40
2018-01-01T06:11:35.550Z,967.42
2018-01-01T06:12:35.576Z,967.34
2018-01-01T06:13:35.623Z,967.34
2018-01-01T06:14:35.671Z,967.27
2018-01-01T06:15:35.711Z,967.31
2018-01-01T06:16:35.774Z,967.34
2018-01-01T06:17:35.796Z,967.33
2018-01-01T06:18:35.844Z,967.36
2018-01-01T06:19:35.884Z,967.32
2018-01-01T06:20:35.928Z,967.42
2018-01-01T06:21:36.003Z,967.43
2018-01-01T06:22:36.015Z,967.42
2018-01-01T06:23:36.062Z,967.46
2018-01-01T06:24:36.103Z,967.45
2018-01-01T06:25:36.146Z,967.46
2018-01-01T06:26:36.206Z,967.45
2018-01-01T06:27:36.278Z,967.42
2018-01-01T06:28:36.280Z,967.46
2018-01-01T06:29:36.321Z,967.44
2018-01-01T06:30:36.367Z,967.51
2018-01-01T06:31:36.413Z,967.46
2018-01-01T06:32:36.487Z,967.49
2018-01-01T06:33:36.497Z,967.43
2018-01-01T06:34:36.542Z,967.51
2018-01-01T06:35:36.585Z,967.52
2018-01-01T06:36:36.628Z,967.57
2018-01-01T06:37:36.694Z,967.61
2018-01-01T06:38:36.718Z,967.60
2018-01-01T06:39:36.767Z,967.74
2018-01-01T06:40:36.806Z,967.72
2018-01-01T06:41:36.849Z,967.71
2018-01-01T06:42:36.918Z,967.71
2018-01-01T06:43:36.940Z,967.66
2018-01-01T06:44:36.983Z,967.68
2018-01-01T06:45:37.035Z,967.65
2018-01-01T06:46:37.071Z,967.72
2018-01-01T06:47:37.135Z,967.67
2018-01-01T06:48:37.161Z,967.69
2018-01-01T06:49:37.202Z,967.68
2018-01-01T06:50:37.245Z,967.73
2018-01-01T06:51:37.289Z,967.67
2018-01-01T06:52:37.350Z,967.69
2018-01-01T06:53:37.378Z,967.71
2018-01-01T06:54:37.423Z,967.73
2018-01-01T06:55:37.465Z,967.71
2018-01-01T06:56:37.521Z,967.74
2018-01-01T06:57:37.572Z,967.81
2018-01-01T06:58:37.603Z,967.80
2018-01-01T06:59:37.641Z,967.77
2018-01-01T07:00:37.685Z,967.79
2018-01-01T07:01:37.733Z,967.83
2018-01-01T07:02:37.808Z,967.80
2018-01-01T07:03:37.824Z,967.82
2018-01-01T07:04:37.864Z,967.82
2018-01-01T07:05:37.907Z,967.90
2018-01-01T07:06:37.948Z,967.86
2018-01-01T07:07:38.012Z,967.92
2018-01-01T07:08:38.038Z,967.87
2018-01-01T07:09:38.110Z,967.96
2018-01-01T07:10:38.126Z,967.97
2018-01-01T07:11:38.168Z,967.99
2018-01-01T07:12:38.212Z,968.02
2018-01-01T07:13:38.273Z,967.99
2018-01-01T07:14:38.300Z,967.99
2018-01-01T07:15:38.350Z,968.03
2018-01-01T07:16:38.392Z,968.02
2018-01-01T07:17:38.437Z,968.07
2018-01-01T07:18:38.498Z,968.08
2018-01-01T07:19:38.526Z,968.01
2018-01-01T07:20:38.590Z,968.09
2018-01-01T07:21:38.659Z,968.06
2018-01-01T07:22:38.652Z,968.08
2018-01-01T07:23:38.699Z,968.13
2018-01-01T07:24:38.741Z,968.12
2018-01-01T07:25:38.841Z,968.16
2018-01-01T07:26:38.836Z,968.25
2018-01-01T07:27:38.875Z,968.22
2018-01-01T07:28:38.932Z,968.11
2018-01-01T07:29:38.980Z,968.18
2018-01-01T07:30:39.024Z,968.11
2018-01-01T07:31:39.050Z,968.17
2018-01-01T07:32:39.104Z,968.19
2018-01-01T07:33:39.136Z,968.21
2018-01-01T07:34:39.181Z,968.28
2018-01-01T07:35:39.242Z,968.30
2018-01-01T07:36:39.267Z,968.30
2018-01-01T07:37:39.312Z,968.34
2018-01-01T07:38:39.359Z,968.34
2018-01-01T07:39:39.404Z,968.36
2018-01-01T07:40:39.461Z,968.35
2018-01-01T07:41:39.507Z,968.33
2018-01-01T07:42:39.533Z,968.33
2018-01-01T07:43:39.583Z,968.29
2018-01-01T07:44:39.638Z,968.29
2018-01-01T07:45:39.664Z,968.35
2018-01-01T07:46:39.727Z,968.36
2018-01-01T07:47:39.761Z,968.40
2018-01-01T07:48:39.798Z,968.40
2018-01-01T07:49:39.842Z,968.41
2018-01-01T07:50:39.888Z,968.42
2018-01-01T07:51:39.944Z,968.40
2018-01-01T07:52:39.994Z,968.36
2018-01-01T07:53:40.022Z,968.34
2018-01-01T07:54:40.069Z,968.38
2018-01-01T07:55:40.106Z,968.44
2018-01-01T07:56:40.149Z,968.40
2018-01-01T07:57:40.209Z,968.40
2018-01-01T07:58:40.238Z,968.35
2018-01-01T07:59:40.283Z,968.39
2018-01-01T08:00:40.326Z,968.42
2018-01-01T08:01:40.370Z,968.35
2018-01-01T08:02:40.432Z,968.43
2018-01-01T08:03:40.461Z,968.36
2018-01-01T08:04:40.509Z,968.36
2018-01-01T08:05:40.549Z,968.43
2018-01-01T08:06:40.597Z,968.48
2018-01-01T08:07:40.658Z,968.50
2018-01-01T08:08:40.684Z,968.55
2018-01-01T08:09:40.723Z,968.54
2018-01-01T08:10:40.770Z,968.62
2018-01-01T08:11:40.815Z,968.62
2018-01-01T08:12:40.877Z,968.63
2018-01-01T08:13:40.905Z,968.60
2018-01-01T08:14:40.944Z,968.60
2018-01-01T08:15:40.992Z,968.62
2018-01-01T08:16:41.032Z,968.63
2018-01-01T08:17:41.117Z,968.62
2018-01-01T08:18:41.133Z,968.62
2018-01-01T08:19:41.169Z,968.58
2018-01-01T08:20:41.209Z,968.63
2018-01-01T08:21:41.255Z,968.62
2018-01-01T08:22:41.314Z,968.59
2018-01-01T08:23:41.358Z,968.57
2018-01-01T08:24:41.393Z,968.62
2018-01-01T08:25:41.434Z,968.60
2018-01-01T08:26:41.476Z,968.57
2018-01-01T08:27:41.523Z,968.59
2018-01-01T08:28:41.818Z,968.58
2018-01-01T08:29:41.609Z,968.60
2018-01-01T08:30:41.653Z,968.59
2018-01-01T08:31:41.700Z,968.60
2018-01-01T08:32:41.741Z,968.57
2018-01-01T08:33:41.802Z,968.56
2018-01-01T08:34:41.851Z,968.62
2018-01-01T08:35:41.878Z,968.61
2018-01-01T08:36:41.920Z,968.57
2018-01-01T08:37:41.964Z,968.69
2018-01-01T08:38:42.009Z,968.65
2018-01-01T08:39:42.076Z,968.65
2018-01-01T08:40:42.100Z,968.68
2018-01-01T08:41:42.141Z,968.68
2018-01-01T08:42:42.186Z,968.71
2018-01-01T08:43:42.235Z,968.70
2018-01-01T08:44:42.291Z,968.67
2018-01-01T08:45:42.333Z,968.70
2018-01-01T08:46:42.364Z,968.70
2018-01-01T08:47:42.407Z,968.73
2018-01-01T08:48:42.455Z,968.74
2018-01-01T08:49:42.539Z,968.68
2018-01-01T08:50:42.543Z,968.80
2018-01-01T08:51:42.588Z,968.81
2018-01-01T08:52:42.632Z,968.81
2018-01-01T08:53:42.674Z,968.78
2018-01-01T08:54:42.752Z,968.80
2018-01-01T08:55:42.764Z,968.83
2018-01-01T08:56:42.808Z,968.86
2018-01-01T08:57:42.851Z,968.82
2018-01-01T08:58:42.898Z,968.91
2018-01-01T08:59:42.975Z,968.90
2018-01-01T09:00:42.986Z,968.93
2018-01-01T09:01:43.030Z,968.81
2018-01-01T09:02:43.074Z,968.94
2018-01-01T09:03:43.119Z,968.89
2018-01-01T09:04:43.199Z,968.85
2018-01-01T09:05:43.208Z,968.95
2018-01-01T09:06:43.254Z,968.88
2018-01-01T09:07:43.298Z,968.89
2018-01-01T09:08:43.340Z,968.92
2018-01-01T09:09:43.401Z,968.97
2018-01-01T09:10:43.429Z,968.93
2018-01-01T09:11:43.515Z,968.93
2018-01-01T09:12:43.524Z,968.93
2018-01-01T09:13:43.568Z,968.90
2018-01-01T09:14:43.606Z,968.91
2018-01-01T09:15:43.651Z,968.89
2018-01-01T09:16:43.733Z,968.89
2018-01-01T09:17:43.741Z,968.80
2018-01-01T09:18:43.788Z,968.89
2018-01-01T09:19:43.826Z,968.86
2018-01-01T09:20:43.873Z,968.85
2018-01-01T09:21:43.950Z,968.88
2018-01-01T09:22:43.963Z,968.90
2018-01-01T09:23:44.008Z,968.88
2018-01-01T09:24:44.053Z,968.88
2018-01-01T09:25:44.098Z,968.85
2018-01-01T09:26:44.182Z,968.82
2018-01-01T09:27:44.187Z,968.72
2018-01-01T09:28:44.233Z,968.71
2018-01-01T09:29:44.276Z,968.66
2018-01-01T09:30:44.320Z,968.63
2018-01-01T09:31:44.385Z,968.59
2018-01-01T09:32:44.425Z,968.61
2018-01-01T09:33:44.456Z,968.58
2018-01-01T09:34:44.500Z,968.60
2018-01-01T09:35:44.550Z,968.63
2018-01-01T09:36:44.594Z,968.69
2018-01-01T09:37:44.654Z,968.62
2018-01-01T09:38:44.686Z,968.61
2018-01-01T09:39:44.731Z,968.59
2018-01-01T09:40:44.782Z,968.57
2018-01-01T09:41:44.822Z,968.66
2018-01-01T09:42:44.883Z,968.63
2018-01-01T09:43:44.911Z,968.63
2018-01-01T09:44:44.968Z,968.58
2018-01-01T09:45:45.005Z,968.65
2018-01-01T09:46:45.048Z,968.63
2018-01-01T09:47:45.107Z,968.66
2018-01-01T09:48:45.138Z,968.72
2018-01-01T09:49:45.184Z,968.63
2018-01-01T09:50:45.231Z,968.61
2018-01-01T09:51:45.279Z,968.60
2018-01-01T09:52:45.339Z,968.62
2018-01-01T09:53:45.369Z,968.61
2018-01-01T09:54:45.414Z,968.58
2018-01-01T09:55:45.463Z,968.55
2018-01-01T09:56:45.516Z,968.51
2018-01-01T09:57:45.576Z,968.41
2018-01-01T09:58:45.604Z,968.41
2018-01-01T09:59:45.654Z,968.48
2018-01-01T10:00:45.701Z,968.53
2018-01-01T10:01:45.746Z,968.59
2018-01-01T10:02:45.813Z,968.53
2018-01-01T10:03:45.842Z,968.59
2018-01-01T10:04:45.893Z,968.62
2018-01-01T10:05:45.961Z,968.59
2018-01-01T10:06:45.998Z,968.56
2018-01-01T10:07:46.052Z,968.54
2018-01-01T10:08:46.089Z,968.58
2018-01-01T10:09:46.152Z,968.60
2018-01-01T10:10:46.184Z,968.63
2018-01-01T10:11:46.234Z,968.65
2018-01-01T10:12:46.992Z,968.70
2018-01-01T10:13:46.331Z,968.70
2018-01-01T10:14:46.399Z,968.69
2018-01-01T10:15:46.434Z,968.67
2018-01-01T10:16:46.480Z,968.58
2018-01-01T10:17:46.530Z,968.57
2018-01-01T10:18:46.584Z,968.55
2018-01-01T10:19:46.653Z,968.61
2018-01-01T10:20:46.685Z,968.55
2018-01-01T10:21:46.733Z,968.51
2018-01-01T10:22:46.785Z,968.56
2018-01-01T10:23:46.834Z,968.52
2018-01-01T10:24:46.903Z,968.37
2018-01-01T10:25:46.946Z,968.34
2018-01-01T10:26:46.988Z,968.31
2018-01-01T10:27:47.037Z,968.30
2018-01-01T10:28:47.089Z,968.23
2018-01-01T10:29:47.154Z,968.27
2018-01-01T10:30:47.188Z,968.24
2018-01-01T10:31:47.260Z,968.23
2018-01-01T10:32:47.293Z,968.16
2018-01-01T10:33:47.339Z,968.21
2018-01-01T10:34:47.391Z,968.10
2018-01-01T10:35:47.454Z,968.04
2018-01-01T10:36:47.487Z,968.00
2018-01-01T10:37:47.544Z,967.96
2018-01-01T10:38:47.588Z,967.94
2018-01-01T10:39:47.637Z,967.91
2018-01-01T10:40:47.699Z,967.87
2018-01-01T10:41:47.734Z,967.83
2018-01-01T10:42:47.783Z,967.91
2018-01-01T10:43:47.832Z,967.85
2018-01-01T10:44:47.882Z,967.87
2018-01-01T10:45:47.946Z,967.85
2018-01-01T10:46:47.974Z,967.84
2018-01-01T10:47:48.023Z,967.80
2018-01-01T10:48:48.073Z,967.82
2018-01-01T10:49:48.119Z,967.73
2018-01-01T10:50:48.183Z,967.75
2018-01-01T10:51:48.213Z,967.69
2018-01-01T10:52:48.263Z,967.68
2018-01-01T10:53:48.305Z,967.75
2018-01-01T10:54:48.355Z,967.65
2018-01-01T10:55:48.437Z,967.69
2018-01-01T10:56:48.453Z,967.62
2018-01-01T10:57:48.515Z,967.61
2018-01-01T10:58:48.545Z,967.56
2018-01-01T10:59:48.593Z,967.48
2018-01-01T11:00:48.642Z,967.56
2018-01-01T11:01:48.708Z,967.55
2018-01-01T11:02:48.734Z,967.47
2018-01-01T11:03:48.797Z,967.51
2018-01-01T11:04:48.830Z,967.47
2018-01-01T11:05:48.874Z,967.46
2018-01-01T11:06:48.935Z,967.46
2018-01-01T11:07:48.967Z,967.45
2018-01-01T11:08:49.012Z,967.45
2018-01-01T11:09:49.059Z,967.40
2018-01-01T11:10:49.107Z,967.37
2018-01-01T11:11:49.178Z,967.34
2018-01-01T11:12:49.196Z,967.38
2018-01-01T11:13:49.248Z,967.32
2018-01-01T11:14:49.997Z,967.31
2018-01-01T11:15:49.349Z,967.27
2018-01-01T11:16:49.415Z,967.25
2018-01-01T11:17:49.434Z,967.25
2018-01-01T11:18:49.480Z,967.21
2018-01-01T11:19:49.525Z,967.18
2018-01-01T11:20:49.571Z,967.17
2018-01-01T11:21:49.633Z,967.12
2018-01-01T11:22:49.665Z,967.07
2018-01-01T11:23:49.710Z,967.07
2018-01-01T11:24:49.756Z,967.01
2018-01-01T11:25:49.826Z,967.03
2018-01-01T11:26:49.851Z,967.01
2018-01-01T11:27:49.900Z,967.03
2018-01-01T11:28:49.941Z,966.94
2018-01-01T11:29:49.990Z,966.89
2018-01-01T11:30:50.058Z,966.88
2018-01-01T11:31:50.082Z,966.81
2018-01-01T11:32:50.128Z,966.76
2018-01-01T11:33:50.172Z,966.78
2018-01-01T11:34:50.220Z,966.69
2018-01-01T11:35:50.282Z,966.72
2018-01-01T11:36:50.318Z,966.66
2018-01-01T11:37:50.358Z,966.58
2018-01-01T11:38:50.423Z,966.55
2018-01-01T11:39:50.451Z,966.54
2018-01-01T11:40:50.498Z,966.52
2018-01-01T11:41:50.543Z,966.48
2018-01-01T11:42:50.589Z,966.42
2018-01-01T11:43:50.659Z,966.37
2018-01-01T11:44:50.688Z,966.30
2018-01-01T11:45:50.731Z,966.27
2018-01-01T11:46:50.792Z,966.24
2018-01-01T11:47:50.826Z,966.19
2018-01-01T11:48:50.868Z,966.22
2018-01-01T11:49:50.915Z,966.18
2018-01-01T11:50:50.967Z,966.18
2018-01-01T11:51:51.032Z,966.15
2018-01-01T11:52:51.055Z,966.14
2018-01-01T11:53:51.104Z,966.06
2018-01-01T11:54:51.154Z,966.02
2018-01-01T11:55:51.198Z,965.95
2018-01-01T11:56:51.261Z,965.95
2018-01-01T11:57:51.294Z,965.91
2018-01-01T11:58:51.344Z,965.87
2018-01-01T11:59:51.403Z,965.85
2018-01-01T12:00:51.437Z,965.83
2018-01-01T12:01:51.492Z,965.84
2018-01-01T12:02:51.522Z,965.84
2018-01-01T12:03:51.572Z,965.79
2018-01-01T12:04:51.636Z,965.75
2018-01-01T12:05:51.671Z,965.73
2018-01-01T12:06:51.742Z,965.71
2018-01-01T12:07:51.759Z,965.66
2018-01-01T12:08:51.803Z,965.62
2018-01-01T12:09:51.849Z,965.57
2018-01-01T12:10:51.896Z,965.60
2018-01-01T12:11:51.955Z,965.48
2018-01-01T12:12:51.985Z,965.55
2018-01-01T12:13:52.034Z,965.51
2018-01-01T12:14:52.095Z,965.51
2018-01-01T12:15:52.126Z,965.45
2018-01-01T12:16:52.172Z,965.42
2018-01-01T12:17:52.239Z,965.42
2018-01-01T12:18:52.266Z,965.37
2018-01-01T12:19:52.343Z,965.37
2018-01-01T12:20:52.361Z,965.34
2018-01-01T12:21:52.402Z,965.28
2018-01-01T12:22:52.450Z,965.21
2018-01-01T12:23:52.493Z,965.17
2018-01-01T12:24:53.038Z,965.13
2018-01-01T12:25:52.585Z,965.22
2018-01-01T12:26:52.637Z,965.01
2018-01-01T12:27:53.202Z,964.97
2018-01-01T12:28:52.762Z,964.95
2018-01-01T12:29:52.778Z,964.87
2018-01-01T12:30:52.816Z,964.88